Lake Tamarack, New Jersey
Current Conditions -  °F | °C
As of 11:53 PM on Thursday 27 Nov 2014 (Local Time) from KFWN Reporting Station
Clear Clear  
Wind Chill: 25°   Ceiling: Unl
Heat Index: 25°   Visibility: 10mi
Dew Point: 21°   Wind: 3mph
Humidity: 85%   Direction: 260°W
Pressure: 30.06"   Gusts: NA
Location:  41.1122°N, 74.4998°W
Report Text: KFWN 280453Z AUTO 26003KT 10SM CLR M04/M06 A3006 RMK AO2 SLP182 T10391061 400171039
Loading
Personal Weather Stations






























Interactive Weather Map New forecast layout! Learn more

10-Day Weather Forecast

Advertisements
Track Severe Weather on mobile